sensor_id;sensor_type;location;lat;lon;timestamp;pressure;altitude;pressure_sealevel;temperature;humidity
6942;BME280;3510;43.200;27.920;2023-03-03T00:00:26;101458.47;;;14.22;44.19
6942;BME280;3510;43.200;27.920;2023-03-03T00:02:53;101460.56;;;14.80;43.65
6942;BME280;3510;43.200;27.920;2023-03-03T00:05:19;101455.22;;;14.45;43.90
6942;BME280;3510;43.200;27.920;2023-03-03T00:07:46;101448.56;;;14.67;43.66
6942;BME280;3510;43.200;27.920;2023-03-03T00:10:14;101455.06;;;14.64;43.48
6942;BME280;3510;43.200;27.920;2023-03-03T00:12:46;101449.03;;;14.51;43.63
6942;BME280;3510;43.200;27.920;2023-03-03T00:15:13;101443.88;;;14.94;43.25
6942;BME280;3510;43.200;27.920;2023-03-03T00:17:40;101443.47;;;14.03;44.97
6942;BME280;3510;43.200;27.920;2023-03-03T00:20:21;101439.78;;;14.42;43.50
6942;BME280;3510;43.200;27.920;2023-03-03T00:22:51;101433.38;;;14.67;43.41
6942;BME280;3510;43.200;27.920;2023-03-03T00:25:23;101438.78;;;14.40;43.72
6942;BME280;3510;43.200;27.920;2023-03-03T00:27:52;101437.69;;;14.26;44.30
6942;BME280;3510;43.200;27.920;2023-03-03T00:30:22;101429.13;;;14.56;43.38
6942;BME280;3510;43.200;27.920;2023-03-03T00:32:49;101430.59;;;15.08;42.77
6942;BME280;3510;43.200;27.920;2023-03-03T00:35:20;101427.97;;;14.85;43.10
6942;BME280;3510;43.200;27.920;2023-03-03T00:37:49;101425.44;;;14.63;43.27
6942;BME280;3510;43.200;27.920;2023-03-03T00:40:20;101428.44;;;14.69;43.18
6942;BME280;3510;43.200;27.920;2023-03-03T00:42:50;101427.13;;;15.63;41.29
6942;BME280;3510;43.200;27.920;2023-03-03T00:45:21;101417.78;;;14.95;42.39
6942;BME280;3510;43.200;27.920;2023-03-03T00:47:49;101417.78;;;15.29;41.93
6942;BME280;3510;43.200;27.920;2023-03-03T00:50:21;101419.16;;;15.13;42.16
6942;BME280;3510;43.200;27.920;2023-03-03T00:52:52;101412.25;;;15.22;41.87
6942;BME280;3510;43.200;27.920;2023-03-03T00:55:21;101403.38;;;15.51;41.50
6942;BME280;3510;43.200;27.920;2023-03-03T00:57:47;101381.22;;;15.03;41.95
6942;BME280;3510;43.200;27.920;2023-03-03T01:00:16;101384.94;;;15.42;41.24
6942;BME280;3510;43.200;27.920;2023-03-03T01:02:42;101397.03;;;14.89;42.07
6942;BME280;3510;43.200;27.920;2023-03-03T01:05:12;101395.81;;;15.17;41.84
6942;BME280;3510;43.200;27.920;2023-03-03T01:07:39;101393.84;;;14.91;42.06
6942;BME280;3510;43.200;27.920;2023-03-03T01:10:06;101384.44;;;14.46;42.48
6942;BME280;3510;43.200;27.920;2023-03-03T01:12:33;101386.91;;;14.02;43.12
6942;BME280;3510;43.200;27.920;2023-03-03T01:15:01;101370.22;;;14.26;43.27
6942;BME280;3510;43.200;27.920;2023-03-03T01:17:29;101341.50;;;14.58;42.04
6942;BME280;3510;43.200;27.920;2023-03-03T01:19:55;101355.84;;;14.69;41.75
6942;BME280;3510;43.200;27.920;2023-03-03T01:22:22;101375.81;;;14.22;42.78
6942;BME280;3510;43.200;27.920;2023-03-03T01:24:49;101328.91;;;14.38;42.02
6942;BME280;3510;43.200;27.920;2023-03-03T01:27:16;101357.06;;;14.74;41.97
6942;BME280;3510;43.200;27.920;2023-03-03T01:29:42;101381.78;;;13.70;44.16
6942;BME280;3510;43.200;27.920;2023-03-03T01:32:09;101375.09;;;15.35;40.96
6942;BME280;3510;43.200;27.920;2023-03-03T01:34:37;101276.88;;;14.75;40.31
6942;BME280;3510;43.200;27.920;2023-03-03T01:37:04;101368.09;;;14.75;41.72
6942;BME280;3510;43.200;27.920;2023-03-03T01:39:30;101367.66;;;15.48;40.38
6942;BME280;3510;43.200;27.920;2023-03-03T01:41:57;101358.78;;;14.64;42.16
6942;BME280;3510;43.200;27.920;2023-03-03T01:44:24;101368.28;;;14.88;41.84
6942;BME280;3510;43.200;27.920;2023-03-03T01:46:54;101349.72;;;14.77;42.06
6942;BME280;3510;43.200;27.920;2023-03-03T01:49:27;101361.28;;;15.08;41.51
6942;BME280;3510;43.200;27.920;2023-03-03T01:51:59;101349.66;;;14.12;43.30
6942;BME280;3510;43.200;27.920;2023-03-03T01:54:30;101347.63;;;15.17;41.20
6942;BME280;3510;43.200;27.920;2023-03-03T01:57:02;101357.53;;;15.83;40.31
6942;BME280;3510;43.200;27.920;2023-03-03T01:59:33;101363.00;;;15.42;40.62
6942;BME280;3510;43.200;27.920;2023-03-03T02:02:03;101363.00;;;16.36;39.33
6942;BME280;3510;43.200;27.920;2023-03-03T02:04:30;101359.75;;;16.51;39.05
6942;BME280;3510;43.200;27.920;2023-03-03T02:07:00;101367.41;;;17.01;38.35
6942;BME280;3510;43.200;27.920;2023-03-03T02:09:33;101364.13;;;16.16;39.44
6942;BME280;3510;43.200;27.920;2023-03-03T02:12:06;101293.44;;;16.23;38.80
6942;BME280;3510;43.200;27.920;2023-03-03T02:14:34;101364.03;;;16.03;39.77
6942;BME280;3510;43.200;27.920;2023-03-03T02:17:01;101352.03;;;15.65;40.41
6942;BME280;3510;43.200;27.920;2023-03-03T02:19:35;101341.09;;;15.66;40.32
6942;BME280;3510;43.200;27.920;2023-03-03T02:22:10;101353.72;;;15.31;41.33
6942;BME280;3510;43.200;27.920;2023-03-03T02:24:42;101346.09;;;14.86;41.91
6942;BME280;3510;43.200;27.920;2023-03-03T02:27:11;101346.94;;;15.08;41.79
6942;BME280;3510;43.200;27.920;2023-03-03T02:29:39;101352.09;;;15.32;40.99
6942;BME280;3510;43.200;27.920;2023-03-03T02:32:05;101361.25;;;15.53;40.58
6942;BME280;3510;43.200;27.920;2023-03-03T02:34:44;101357.09;;;16.01;39.91
6942;BME280;3510;43.200;27.920;2023-03-03T02:37:10;101351.16;;;15.88;40.17
6942;BME280;3510;43.200;27.920;2023-03-03T02:39:37;101350.44;;;16.14;39.38
6942;BME280;3510;43.200;27.920;2023-03-03T02:42:07;101353.84;;;15.56;40.29
6942;BME280;3510;43.200;27.920;2023-03-03T02:44:37;101337.44;;;15.98;39.93
6942;BME280;3510;43.200;27.920;2023-03-03T02:47:04;101360.84;;;16.06;39.67
6942;BME280;3510;43.200;27.920;2023-03-03T02:49:33;101350.91;;;15.97;39.83
6942;BME280;3510;43.200;27.920;2023-03-03T02:52:00;101349.41;;;15.18;41.22
6942;BME280;3510;43.200;27.920;2023-03-03T02:54:28;101356.97;;;16.11;39.79
6942;BME280;3510;43.200;27.920;2023-03-03T02:56:55;101343.31;;;15.85;39.97
6942;BME280;3510;43.200;27.920;2023-03-03T02:59:22;101336.97;;;14.44;42.66
6942;BME280;3510;43.200;27.920;2023-03-03T03:01:51;101348.22;;;15.60;40.66
6942;BME280;3510;43.200;27.920;2023-03-03T03:04:20;101349.59;;;15.79;40.43
6942;BME280;3510;43.200;27.920;2023-03-03T03:06:47;101332.72;;;15.67;40.52
6942;BME280;3510;43.200;27.920;2023-03-03T03:09:15;101339.72;;;16.18;39.38
6942;BME280;3510;43.200;27.920;2023-03-03T03:11:42;101326.19;;;15.59;40.31
6942;BME280;3510;43.200;27.920;2023-03-03T03:14:11;101340.28;;;15.44;40.76
6942;BME280;3510;43.200;27.920;2023-03-03T03:16:38;101333.47;;;15.55;40.89
6942;BME280;3510;43.200;27.920;2023-03-03T03:19:07;101318.44;;;15.46;40.84
6942;BME280;3510;43.200;27.920;2023-03-03T03:21:34;101326.88;;;15.80;39.99
6942;BME280;3510;43.200;27.920;2023-03-03T03:24:00;101333.47;;;15.90;40.11
6942;BME280;3510;43.200;27.920;2023-03-03T03:26:27;101335.00;;;15.41;40.96
6942;BME280;3510;43.200;27.920;2023-03-03T03:28:54;101331.19;;;15.12;40.80
6942;BME280;3510;43.200;27.920;2023-03-03T03:31:21;101329.19;;;15.77;40.01
6942;BME280;3510;43.200;27.920;2023-03-03T03:33:48;101332.34;;;15.51;40.56
6942;BME280;3510;43.200;27.920;2023-03-03T03:36:16;101331.75;;;15.65;40.16
6942;BME280;3510;43.200;27.920;2023-03-03T03:38:43;101334.03;;;15.86;39.82
6942;BME280;3510;43.200;27.920;2023-03-03T03:41:11;101319.47;;;15.95;39.57
6942;BME280;3510;43.200;27.920;2023-03-03T03:43:39;101322.53;;;15.56;40.20
6942;BME280;3510;43.200;27.920;2023-03-03T03:46:06;101327.75;;;15.81;40.12
6942;BME280;3510;43.200;27.920;2023-03-03T03:48:33;101321.25;;;16.33;38.98
6942;BME280;3510;43.200;27.920;2023-03-03T03:51:00;101319.94;;;16.26;39.00
6942;BME280;3510;43.200;27.920;2023-03-03T03:53:29;101329.44;;;16.54;38.75
6942;BME280;3510;43.200;27.920;2023-03-03T03:55:56;101309.53;;;16.35;38.82
6942;BME280;3510;43.200;27.920;2023-03-03T03:58:22;101318.63;;;15.02;41.01
6942;BME280;3510;43.200;27.920;2023-03-03T04:00:49;101304.88;;;16.04;39.15
6942;BME280;3510;43.200;27.920;2023-03-03T04:03:16;101314.00;;;15.20;41.05
6942;BME280;3510;43.200;27.920;2023-03-03T04:05:43;101288.78;;;15.21;40.68
6942;BME280;3510;43.200;27.920;2023-03-03T04:08:10;101305.28;;;15.05;40.86
6942;BME280;3510;43.200;27.920;2023-03-03T04:10:38;101311.16;;;15.27;40.54
6942;BME280;3510;43.200;27.920;2023-03-03T04:13:05;101317.59;;;15.00;41.11
6942;BME280;3510;43.200;27.920;2023-03-03T04:15:32;101313.91;;;14.73;41.84
6942;BME280;3510;43.200;27.920;2023-03-03T04:17:58;101311.75;;;14.45;42.59
6942;BME280;3510;43.200;27.920;2023-03-03T04:20:25;101298.06;;;15.33;40.58
6942;BME280;3510;43.200;27.920;2023-03-03T04:22:52;101305.78;;;14.89;41.78
6942;BME280;3510;43.200;27.920;2023-03-03T04:25:19;101290.56;;;14.33;42.46
6942;BME280;3510;43.200;27.920;2023-03-03T04:27:47;101272.78;;;14.65;41.90
6942;BME280;3510;43.200;27.920;2023-03-03T04:30:15;101274.41;;;14.09;42.77
6942;BME280;3510;43.200;27.920;2023-03-03T04:32:42;101300.78;;;14.35;42.91
6942;BME280;3510;43.200;27.920;2023-03-03T04:35:09;101303.56;;;14.16;43.21
6942;BME280;3510;43.200;27.920;2023-03-03T04:37:36;101304.03;;;14.00;43.38
6942;BME280;3510;43.200;27.920;2023-03-03T04:40:05;101311.94;;;14.81;42.25
6942;BME280;3510;43.200;27.920;2023-03-03T04:42:33;101278.09;;;15.37;40.39
6942;BME280;3510;43.200;27.920;2023-03-03T04:45:04;101290.75;;;15.96;39.45
6942;BME280;3510;43.200;27.920;2023-03-03T04:47:31;101298.03;;;16.03;39.38
6942;BME280;3510;43.200;27.920;2023-03-03T04:49:59;101299.81;;;15.45;40.58
6942;BME280;3510;43.200;27.920;2023-03-03T04:52:26;101290.78;;;14.80;41.23
6942;BME280;3510;43.200;27.920;2023-03-03T04:54:53;101283.50;;;14.07;43.26
6942;BME280;3510;43.200;27.920;2023-03-03T04:57:20;101289.50;;;14.19;42.77
6942;BME280;3510;43.200;27.920;2023-03-03T04:59:47;101306.41;;;14.74;42.16
6942;BME280;3510;43.200;27.920;2023-03-03T05:02:15;101299.88;;;15.12;41.23
6942;BME280;3510;43.200;27.920;2023-03-03T05:04:41;101309.72;;;14.51;42.29
6942;BME280;3510;43.200;27.920;2023-03-03T05:07:08;101300.28;;;14.39;42.87
6942;BME280;3510;43.200;27.920;2023-03-03T05:09:35;101308.91;;;14.09;42.69
6942;BME280;3510;43.200;27.920;2023-03-03T05:12:02;101306.88;;;14.37;42.37
6942;BME280;3510;43.200;27.920;2023-03-03T05:14:29;101315.13;;;14.34;42.72
6942;BME280;3510;43.200;27.920;2023-03-03T05:16:56;101306.03;;;14.58;42.82
6942;BME280;3510;43.200;27.920;2023-03-03T05:19:24;101313.47;;;15.24;40.79
6942;BME280;3510;43.200;27.920;2023-03-03T05:21:51;101286.88;;;14.62;41.66
6942;BME280;3510;43.200;27.920;2023-03-03T05:24:18;101310.09;;;15.70;39.76
6942;BME280;3510;43.200;27.920;2023-03-03T05:26:45;101320.19;;;15.23;40.12
6942;BME280;3510;43.200;27.920;2023-03-03T05:29:12;101328.88;;;15.15;40.50
6942;BME280;3510;43.200;27.920;2023-03-03T05:31:39;101311.84;;;15.71;39.96
6942;BME280;3510;43.200;27.920;2023-03-03T05:34:05;101322.31;;;15.53;40.08
6942;BME280;3510;43.200;27.920;2023-03-03T05:36:33;101313.38;;;14.55;42.16
6942;BME280;3510;43.200;27.920;2023-03-03T05:39:00;101315.00;;;15.10;40.40
6942;BME280;3510;43.200;27.920;2023-03-03T05:41:27;101324.28;;;15.21;39.88
6942;BME280;3510;43.200;27.920;2023-03-03T05:43:53;101303.78;;;15.89;38.75
6942;BME280;3510;43.200;27.920;2023-03-03T05:46:20;101323.53;;;15.58;39.61
6942;BME280;3510;43.200;27.920;2023-03-03T05:48:50;101322.22;;;16.35;38.09
6942;BME280;3510;43.200;27.920;2023-03-03T05:51:16;101333.19;;;16.34;38.57
6942;BME280;3510;43.200;27.920;2023-03-03T05:53:45;101319.81;;;16.36;38.02
6942;BME280;3510;43.200;27.920;2023-03-03T05:56:11;101331.13;;;16.53;37.97
6942;BME280;3510;43.200;27.920;2023-03-03T05:58:38;101333.88;;;15.37;40.58
6942;BME280;3510;43.200;27.920;2023-03-03T06:01:05;101299.34;;;15.28;41.70
6942;BME280;3510;43.200;27.920;2023-03-03T06:03:32;101328.34;;;15.31;42.28
6942;BME280;3510;43.200;27.920;2023-03-03T06:05:59;101319.50;;;15.03;43.40
6942;BME280;3510;43.200;27.920;2023-03-03T06:08:25;101330.53;;;15.03;43.46
6942;BME280;3510;43.200;27.920;2023-03-03T06:10:55;101319.13;;;15.55;42.01
6942;BME280;3510;43.200;27.920;2023-03-03T06:13:21;101314.16;;;15.92;41.14
6942;BME280;3510;43.200;27.920;2023-03-03T06:15:48;101310.19;;;16.44;40.22
6942;BME280;3510;43.200;27.920;2023-03-03T06:18:15;101306.53;;;16.77;39.47
6942;BME280;3510;43.200;27.920;2023-03-03T06:20:42;101321.13;;;16.80;39.20
6942;BME280;3510;43.200;27.920;2023-03-03T06:23:08;101322.50;;;16.88;39.31
6942;BME280;3510;43.200;27.920;2023-03-03T06:25:37;101306.19;;;16.11;40.54
6942;BME280;3510;43.200;27.920;2023-03-03T06:28:05;101314.38;;;16.43;40.13
6942;BME280;3510;43.200;27.920;2023-03-03T06:30:32;101323.47;;;16.90;39.46
6942;BME280;3510;43.200;27.920;2023-03-03T06:32:59;101334.22;;;16.86;39.15
6942;BME280;3510;43.200;27.920;2023-03-03T06:35:25;101327.84;;;16.79;38.87
6942;BME280;3510;43.200;27.920;2023-03-03T06:37:52;101329.28;;;17.01;38.17
6942;BME280;3510;43.200;27.920;2023-03-03T06:40:19;101323.69;;;16.56;39.07
6942;BME280;3510;43.200;27.920;2023-03-03T06:42:46;101325.84;;;15.90;39.64
6942;BME280;3510;43.200;27.920;2023-03-03T06:45:14;101332.91;;;16.54;38.81
6942;BME280;3510;43.200;27.920;2023-03-03T06:47:41;101330.28;;;16.41;39.35
6942;BME280;3510;43.200;27.920;2023-03-03T06:50:09;101326.69;;;17.26;37.76
6942;BME280;3510;43.200;27.920;2023-03-03T06:52:37;101295.38;;;16.63;38.16
6942;BME280;3510;43.200;27.920;2023-03-03T06:55:10;101298.63;;;16.86;38.14
6942;BME280;3510;43.200;27.920;2023-03-03T06:57:38;101329.31;;;16.64;38.67
6942;BME280;3510;43.200;27.920;2023-03-03T07:00:16;101328.41;;;15.90;39.57
6942;BME280;3510;43.200;27.920;2023-03-03T07:02:45;101334.88;;;17.08;37.85
6942;BME280;3510;43.200;27.920;2023-03-03T07:05:14;101332.28;;;17.33;36.80
6942;BME280;3510;43.200;27.920;2023-03-03T07:07:41;101335.03;;;17.36;36.50
6942;BME280;3510;43.200;27.920;2023-03-03T07:10:17;101322.88;;;17.46;36.35
6942;BME280;3510;43.200;27.920;2023-03-03T07:12:46;101328.75;;;17.31;36.67
6942;BME280;3510;43.200;27.920;2023-03-03T07:15:17;101329.19;;;16.37;38.14
6942;BME280;3510;43.200;27.920;2023-03-03T07:17:48;101321.97;;;16.07;38.74
6942;BME280;3510;43.200;27.920;2023-03-03T07:20:19;101312.84;;;15.85;39.05
6942;BME280;3510;43.200;27.920;2023-03-03T07:22:46;101319.97;;;16.14;38.75
6942;BME280;3510;43.200;27.920;2023-03-03T07:25:21;101316.81;;;15.82;39.42
6942;BME280;3510;43.200;27.920;2023-03-03T07:27:53;101313.94;;;16.37;37.94
6942;BME280;3510;43.200;27.920;2023-03-03T07:30:26;101308.41;;;16.43;38.04
6942;BME280;3510;43.200;27.920;2023-03-03T07:32:55;101309.44;;;15.85;38.82
6942;BME280;3510;43.200;27.920;2023-03-03T07:35:34;101312.84;;;16.34;38.08
6942;BME280;3510;43.200;27.920;2023-03-03T07:38:15;101294.94;;;16.44;38.22
6942;BME280;3510;43.200;27.920;2023-03-03T07:40:47;101270.25;;;16.30;38.04
6942;BME280;3510;43.200;27.920;2023-03-03T07:43:28;101291.44;;;16.30;37.84
6942;BME280;3510;43.200;27.920;2023-03-03T07:46:01;101307.13;;;16.36;37.90
6942;BME280;3510;43.200;27.920;2023-03-03T07:48:34;101288.91;;;16.55;37.91
6942;BME280;3510;43.200;27.920;2023-03-03T07:51:04;101301.81;;;16.33;38.62
6942;BME280;3510;43.200;27.920;2023-03-03T07:53:33;101294.56;;;16.51;38.57
6942;BME280;3510;43.200;27.920;2023-03-03T07:56:11;101276.09;;;16.29;38.85
6942;BME280;3510;43.200;27.920;2023-03-03T07:58:42;101289.69;;;16.79;38.44
6942;BME280;3510;43.200;27.920;2023-03-03T08:01:36;101292.69;;;18.18;36.05
6942;BME280;3510;43.200;27.920;2023-03-03T08:04:15;101282.50;;;18.18;36.10
6942;BME280;3510;43.200;27.920;2023-03-03T08:06:47;101298.59;;;18.73;35.54
6942;BME280;3510;43.200;27.920;2023-03-03T08:09:35;101292.50;;;19.45;34.42
6942;BME280;3510;43.200;27.920;2023-03-03T08:12:18;101289.84;;;18.42;35.75
6942;BME280;3510;43.200;27.920;2023-03-03T08:14:50;101290.09;;;17.90;37.02
6942;BME280;3510;43.200;27.920;2023-03-03T08:17:21;101292.38;;;17.32;38.14
6942;BME280;3510;43.200;27.920;2023-03-03T08:19:48;101274.19;;;16.88;38.47
6942;BME280;3510;43.200;27.920;2023-03-03T08:22:18;101279.22;;;17.13;38.56
6942;BME280;3510;43.200;27.920;2023-03-03T08:24:45;101285.19;;;17.53;37.92
6942;BME280;3510;43.200;27.920;2023-03-03T08:27:12;101281.28;;;17.18;38.29
6942;BME280;3510;43.200;27.920;2023-03-03T08:29:38;101274.00;;;16.85;38.61
6942;BME280;3510;43.200;27.920;2023-03-03T08:32:05;101268.88;;;17.10;38.62
6942;BME280;3510;43.200;27.920;2023-03-03T08:34:33;101272.06;;;17.87;36.96
6942;BME280;3510;43.200;27.920;2023-03-03T08:37:00;101251.84;;;17.62;37.22
6942;BME280;3510;43.200;27.920;2023-03-03T08:39:27;101250.84;;;18.71;35.25
6942;BME280;3510;43.200;27.920;2023-03-03T08:41:54;101269.25;;;18.52;35.75
6942;BME280;3510;43.200;27.920;2023-03-03T08:44:20;101275.75;;;19.04;35.24
6942;BME280;3510;43.200;27.920;2023-03-03T08:46:47;101286.84;;;19.80;34.11
6942;BME280;3510;43.200;27.920;2023-03-03T08:49:14;101296.56;;;20.35;32.63
6942;BME280;3510;43.200;27.920;2023-03-03T08:51:43;101299.31;;;21.05;31.93
6942;BME280;3510;43.200;27.920;2023-03-03T08:54:09;101301.09;;;21.24;31.15
6942;BME280;3510;43.200;27.920;2023-03-03T08:56:36;101297.75;;;21.43;31.31
6942;BME280;3510;43.200;27.920;2023-03-03T08:59:03;101296.88;;;21.78;30.78
6942;BME280;3510;43.200;27.920;2023-03-03T09:01:30;101262.34;;;18.79;34.61
6942;BME280;3510;43.200;27.920;2023-03-03T09:03:57;101301.94;;;19.17;34.95
6942;BME280;3510;43.200;27.920;2023-03-03T09:06:24;101283.00;;;19.28;34.72
6942;BME280;3510;43.200;27.920;2023-03-03T09:08:52;101297.13;;;19.82;33.48
6942;BME280;3510;43.200;27.920;2023-03-03T09:11:23;101278.63;;;19.86;33.79
6942;BME280;3510;43.200;27.920;2023-03-03T09:13:59;101290.66;;;20.36;32.52
6942;BME280;3510;43.200;27.920;2023-03-03T09:16:29;101285.63;;;19.74;33.69
6942;BME280;3510;43.200;27.920;2023-03-03T09:19:15;101285.34;;;20.17;32.91
6942;BME280;3510;43.200;27.920;2023-03-03T09:21:43;101282.09;;;20.68;31.96
6942;BME280;3510;43.200;27.920;2023-03-03T09:24:19;101280.50;;;21.57;31.16
6942;BME280;3510;43.200;27.920;2023-03-03T09:26:48;101256.78;;;21.25;31.01
6942;BME280;3510;43.200;27.920;2023-03-03T09:29:23;101273.34;;;21.87;30.90
6942;BME280;3510;43.200;27.920;2023-03-03T09:31:52;101269.38;;;21.38;31.34
6942;BME280;3510;43.200;27.920;2023-03-03T09:34:22;101258.81;;;21.32;31.20
6942;BME280;3510;43.200;27.920;2023-03-03T09:36:50;101234.22;;;21.00;31.76
6942;BME280;3510;43.200;27.920;2023-03-03T09:39:20;101259.63;;;20.79;32.22
6942;BME280;3510;43.200;27.920;2023-03-03T09:42:14;101266.38;;;20.44;32.55
6942;BME280;3510;43.200;27.920;2023-03-03T09:44:56;101263.75;;;20.93;32.05
6942;BME280;3510;43.200;27.920;2023-03-03T09:47:37;101249.13;;;19.91;33.54
6942;BME280;3510;43.200;27.920;2023-03-03T09:50:15;101253.09;;;20.19;33.40
6942;BME280;3510;43.200;27.920;2023-03-03T09:52:51;101224.63;;;19.64;34.12
6942;BME280;3510;43.200;27.920;2023-03-03T09:55:33;101239.03;;;19.32;34.66
6942;BME280;3510;43.200;27.920;2023-03-03T09:58:15;101238.72;;;19.88;34.08
6942;BME280;3510;43.200;27.920;2023-03-03T10:00:54;101235.84;;;20.31;33.50
6942;BME280;3510;43.200;27.920;2023-03-03T10:03:41;101232.13;;;20.75;32.83
6942;BME280;3510;43.200;27.920;2023-03-03T10:06:18;101222.06;;;20.78;32.61
6942;BME280;3510;43.200;27.920;2023-03-03T10:09:01;101209.28;;;21.49;31.56
6942;BME280;3510;43.200;27.920;2023-03-03T10:11:37;101222.97;;;21.32;31.77
6942;BME280;3510;43.200;27.920;2023-03-03T10:14:21;101222.38;;;18.50;36.74
6942;BME280;3510;43.200;27.920;2023-03-03T10:17:05;101219.22;;;17.70;38.05
6942;BME280;3510;43.200;27.920;2023-03-03T10:19:38;101214.47;;;19.34;35.97
6942;BME280;3510;43.200;27.920;2023-03-03T10:22:16;101207.66;;;18.74;35.90
6942;BME280;3510;43.200;27.920;2023-03-03T10:24:54;101207.00;;;18.48;36.61
6942;BME280;3510;43.200;27.920;2023-03-03T10:27:38;101204.19;;;18.44;37.38
6942;BME280;3510;43.200;27.920;2023-03-03T10:30:12;101193.25;;;18.74;36.82
6942;BME280;3510;43.200;27.920;2023-03-03T10:32:45;101178.41;;;19.13;35.89
6942;BME280;3510;43.200;27.920;2023-03-03T10:35:23;101192.53;;;20.50;33.67
6942;BME280;3510;43.200;27.920;2023-03-03T10:38:07;101199.44;;;20.51;33.54
6942;BME280;3510;43.200;27.920;2023-03-03T10:40:42;101193.50;;;20.52;33.19
6942;BME280;3510;43.200;27.920;2023-03-03T10:43:27;101170.44;;;20.87;32.93
6942;BME280;3510;43.200;27.920;2023-03-03T10:46:24;101189.13;;;20.84;33.06
6942;BME280;3510;43.200;27.920;2023-03-03T10:49:07;101182.75;;;20.25;33.62
6942;BME280;3510;43.200;27.920;2023-03-03T10:51:47;101196.16;;;19.89;33.99
6942;BME280;3510;43.200;27.920;2023-03-03T10:54:29;101190.16;;;20.21;33.59
6942;BME280;3510;43.200;27.920;2023-03-03T10:57:03;101174.53;;;19.82;33.90
6942;BME280;3510;43.200;27.920;2023-03-03T10:59:43;101181.00;;;19.61;34.98
6942;BME280;3510;43.200;27.920;2023-03-03T11:02:21;101175.84;;;20.41;33.93
6942;BME280;3510;43.200;27.920;2023-03-03T11:05:07;101173.28;;;19.28;35.34
6942;BME280;3510;43.200;27.920;2023-03-03T11:07:41;101164.13;;;18.85;36.11
6942;BME280;3510;43.200;27.920;2023-03-03T11:10:21;101156.47;;;18.41;37.18
6942;BME280;3510;43.200;27.920;2023-03-03T11:12:59;101149.19;;;19.23;36.14
6942;BME280;3510;43.200;27.920;2023-03-03T11:15:46;101120.94;;;19.83;35.07
6942;BME280;3510;43.200;27.920;2023-03-03T11:18:24;101137.41;;;20.39;33.62
6942;BME280;3510;43.200;27.920;2023-03-03T11:20:59;101136.94;;;19.96;34.85
6942;BME280;3510;43.200;27.920;2023-03-03T11:23:46;101132.59;;;20.11;34.52
6942;BME280;3510;43.200;27.920;2023-03-03T11:26:22;101117.00;;;20.23;34.27
6942;BME280;3510;43.200;27.920;2023-03-03T11:29:02;101118.06;;;18.82;36.46
6942;BME280;3510;43.200;27.920;2023-03-03T11:31:40;101120.84;;;18.43;37.24
6942;BME280;3510;43.200;27.920;2023-03-03T11:34:16;101081.44;;;18.21;37.33
6942;BME280;3510;43.200;27.920;2023-03-03T11:36:49;101114.25;;;18.46;37.50
6942;BME280;3510;43.200;27.920;2023-03-03T11:39:21;101121.16;;;17.61;38.72
6942;BME280;3510;43.200;27.920;2023-03-03T11:41:59;101084.56;;;18.02;37.72
6942;BME280;3510;43.200;27.920;2023-03-03T11:44:31;101108.84;;;18.55;37.20
6942;BME280;3510;43.200;27.920;2023-03-03T11:47:05;101104.25;;;18.34;37.60
6942;BME280;3510;43.200;27.920;2023-03-03T11:49:41;101097.91;;;18.87;36.81
6942;BME280;3510;43.200;27.920;2023-03-03T11:52:20;101100.69;;;19.87;34.86
6942;BME280;3510;43.200;27.920;2023-03-03T11:54:53;101102.38;;;19.70;35.08
6942;BME280;3510;43.200;27.920;2023-03-03T11:57:28;101057.19;;;19.36;34.90
6942;BME280;3510;43.200;27.920;2023-03-03T12:00:01;101096.25;;;19.35;35.24
6942;BME280;3510;43.200;27.920;2023-03-03T12:05:33;101090.59;;;18.93;35.80
6942;BME280;3510;43.200;27.920;2023-03-03T12:08:10;101099.75;;;18.90;36.46
6942;BME280;3510;43.200;27.920;2023-03-03T12:10:43;101092.16;;;19.06;35.80
6942;BME280;3510;43.200;27.920;2023-03-03T12:13:22;101098.28;;;18.78;36.95
6942;BME280;3510;43.200;27.920;2023-03-03T12:16:00;101097.75;;;18.69;37.09
6942;BME280;3510;43.200;27.920;2023-03-03T12:18:44;101095.41;;;19.03;36.42
6942;BME280;3510;43.200;27.920;2023-03-03T12:21:27;101091.19;;;19.04;36.30
6942;BME280;3510;43.200;27.920;2023-03-03T12:24:11;101095.66;;;18.47;37.51
6942;BME280;3510;43.200;27.920;2023-03-03T12:26:48;101094.06;;;19.10;36.35
6942;BME280;3510;43.200;27.920;2023-03-03T12:29:25;101092.75;;;19.33;35.94
6942;BME280;3510;43.200;27.920;2023-03-03T12:31:59;101083.88;;;19.26;35.81
6942;BME280;3510;43.200;27.920;2023-03-03T12:34:36;101072.16;;;19.14;36.16
6942;BME280;3510;43.200;27.920;2023-03-03T12:37:15;101089.50;;;19.36;35.65
6942;BME280;3510;43.200;27.920;2023-03-03T12:40:08;101084.00;;;19.13;35.23
6942;BME280;3510;43.200;27.920;2023-03-03T12:42:42;101095.38;;;18.72;36.99
6942;BME280;3510;43.200;27.920;2023-03-03T12:45:23;101092.31;;;18.78;36.91
6942;BME280;3510;43.200;27.920;2023-03-03T12:47:59;101101.25;;;18.56;36.99
6942;BME280;3510;43.200;27.920;2023-03-03T12:50:35;101094.31;;;19.31;36.06
6942;BME280;3510;43.200;27.920;2023-03-03T12:53:13;101092.47;;;18.51;37.48
6942;BME280;3510;43.200;27.920;2023-03-03T12:55:47;101087.34;;;17.77;39.21
6942;BME280;3510;43.200;27.920;2023-03-03T12:58:26;101076.41;;;18.23;37.96
6942;BME280;3510;43.200;27.920;2023-03-03T13:01:05;101087.88;;;18.60;37.57
6942;BME280;3510;43.200;27.920;2023-03-03T13:03:40;101074.19;;;19.36;36.05
6942;BME280;3510;43.200;27.920;2023-03-03T13:06:17;101076.97;;;19.89;35.23
6942;BME280;3510;43.200;27.920;2023-03-03T13:08:53;101087.19;;;20.23;34.49
6942;BME280;3510;43.200;27.920;2023-03-03T13:11:34;101089.25;;;20.30;34.31
6942;BME280;3510;43.200;27.920;2023-03-03T13:14:15;101082.81;;;20.21;34.17
6942;BME280;3510;43.200;27.920;2023-03-03T13:16:50;101092.31;;;19.89;34.56
6942;BME280;3510;43.200;27.920;2023-03-03T13:19:25;101085.22;;;19.20;35.95
6942;BME280;3510;43.200;27.920;2023-03-03T13:21:59;101083.13;;;19.44;35.70
6942;BME280;3510;43.200;27.920;2023-03-03T13:24:37;101083.81;;;20.06;34.80